sensor_id;sensor_type;location;lat;lon;timestamp;P1;durP1;ratioP1;P2;durP2;ratioP2
72645;SDS011;60687;53.876;10.674;2023-04-24T00:02:33;7.20;;;2.70;;
72645;SDS011;60687;53.876;10.674;2023-04-24T00:12:39;6.00;;;2.53;;
72645;SDS011;60687;53.876;10.674;2023-04-24T00:22:41;6.43;;;2.77;;
72645;SDS011;60687;53.876;10.674;2023-04-24T00:32:45;6.30;;;2.40;;
72645;SDS011;60687;53.876;10.674;2023-04-24T00:42:48;6.00;;;2.35;;
72645;SDS011;60687;53.876;10.674;2023-04-24T00:52:52;5.90;;;2.30;;
72645;SDS011;60687;53.876;10.674;2023-04-24T01:02:54;5.60;;;2.27;;
72645;SDS011;60687;53.876;10.674;2023-04-24T01:13:00;7.45;;;3.00;;
72645;SDS011;60687;53.876;10.674;2023-04-24T01:23:04;6.63;;;2.80;;
72645;SDS011;60687;53.876;10.674;2023-04-24T01:33:06;6.87;;;2.97;;
72645;SDS011;60687;53.876;10.674;2023-04-24T01:43:10;7.10;;;2.87;;
72645;SDS011;60687;53.876;10.674;2023-04-24T01:53:13;6.65;;;3.05;;
72645;SDS011;60687;53.876;10.674;2023-04-24T02:03:17;6.70;;;2.90;;
72645;SDS011;60687;53.876;10.674;2023-04-24T02:13:22;6.77;;;2.20;;
72645;SDS011;60687;53.876;10.674;2023-04-24T02:23:26;6.22;;;2.42;;
72645;SDS011;60687;53.876;10.674;2023-04-24T02:33:29;5.63;;;2.10;;
72645;SDS011;60687;53.876;10.674;2023-04-24T02:43:32;5.80;;;2.40;;
72645;SDS011;60687;53.876;10.674;2023-04-24T02:53:35;6.63;;;2.60;;
72645;SDS011;60687;53.876;10.674;2023-04-24T03:13:56;6.40;;;2.70;;
72645;SDS011;60687;53.876;10.674;2023-04-24T03:23:59;6.30;;;2.50;;
72645;SDS011;60687;53.876;10.674;2023-04-24T03:34:03;7.15;;;2.67;;
72645;SDS011;60687;53.876;10.674;2023-04-24T03:44:08;6.73;;;3.03;;
72645;SDS011;60687;53.876;10.674;2023-04-24T03:54:11;7.03;;;2.50;;
72645;SDS011;60687;53.876;10.674;2023-04-24T04:04:16;5.70;;;2.05;;
72645;SDS011;60687;53.876;10.674;2023-04-24T04:14:19;5.80;;;1.90;;
72645;SDS011;60687;53.876;10.674;2023-04-24T04:24:24;6.37;;;2.07;;
72645;SDS011;60687;53.876;10.674;2023-04-24T04:34:28;5.38;;;2.10;;
72645;SDS011;60687;53.876;10.674;2023-04-24T04:44:36;6.03;;;2.00;;
72645;SDS011;60687;53.876;10.674;2023-04-24T04:54:41;5.30;;;2.10;;
72645;SDS011;60687;53.876;10.674;2023-04-24T05:04:45;5.10;;;1.90;;
72645;SDS011;60687;53.876;10.674;2023-04-24T05:14:49;4.70;;;1.80;;
72645;SDS011;60687;53.876;10.674;2023-04-24T05:24:53;5.17;;;2.00;;
72645;SDS011;60687;53.876;10.674;2023-04-24T05:35:16;4.80;;;1.73;;
72645;SDS011;60687;53.876;10.674;2023-04-24T05:45:20;5.07;;;1.90;;
72645;SDS011;60687;53.876;10.674;2023-04-24T05:55:23;4.43;;;1.57;;
72645;SDS011;60687;53.876;10.674;2023-04-24T06:05:27;4.77;;;1.70;;
72645;SDS011;60687;53.876;10.674;2023-04-24T06:15:30;3.72;;;1.42;;
72645;SDS011;60687;53.876;10.674;2023-04-24T06:25:42;4.38;;;1.48;;
72645;SDS011;60687;53.876;10.674;2023-04-24T06:35:46;3.83;;;1.30;;
72645;SDS011;60687;53.876;10.674;2023-04-24T06:45:50;5.73;;;1.60;;
72645;SDS011;60687;53.876;10.674;2023-04-24T06:55:52;3.85;;;1.45;;
72645;SDS011;60687;53.876;10.674;2023-04-24T07:05:56;4.27;;;1.50;;
72645;SDS011;60687;53.876;10.674;2023-04-24T07:16:01;4.90;;;1.50;;
72645;SDS011;60687;53.876;10.674;2023-04-24T07:26:05;4.20;;;1.30;;
72645;SDS011;60687;53.876;10.674;2023-04-24T07:36:08;3.93;;;1.30;;
72645;SDS011;60687;53.876;10.674;2023-04-24T07:46:17;4.13;;;1.17;;
72645;SDS011;60687;53.876;10.674;2023-04-24T07:56:19;6.50;;;1.60;;
72645;SDS011;60687;53.876;10.674;2023-04-24T08:06:23;4.15;;;1.45;;
72645;SDS011;60687;53.876;10.674;2023-04-24T08:16:30;5.87;;;1.60;;
72645;SDS011;60687;53.876;10.674;2023-04-24T08:26:35;3.57;;;1.20;;
72645;SDS011;60687;53.876;10.674;2023-04-24T08:36:38;3.88;;;1.30;;
72645;SDS011;60687;53.876;10.674;2023-04-24T08:46:43;4.63;;;1.60;;
72645;SDS011;60687;53.876;10.674;2023-04-24T08:56:49;4.70;;;1.63;;
72645;SDS011;60687;53.876;10.674;2023-04-24T09:06:56;5.95;;;1.70;;
72645;SDS011;60687;53.876;10.674;2023-04-24T09:16:59;3.87;;;1.20;;
72645;SDS011;60687;53.876;10.674;2023-04-24T09:27:03;4.23;;;1.40;;
72645;SDS011;60687;53.876;10.674;2023-04-24T09:37:05;4.10;;;1.50;;
72645;SDS011;60687;53.876;10.674;2023-04-24T09:47:10;4.95;;;1.75;;
72645;SDS011;60687;53.876;10.674;2023-04-24T09:57:14;5.87;;;1.83;;
72645;SDS011;60687;53.876;10.674;2023-04-24T10:07:18;5.63;;;2.30;;
72645;SDS011;60687;53.876;10.674;2023-04-24T10:17:21;6.65;;;2.40;;
72645;SDS011;60687;53.876;10.674;2023-04-24T10:27:26;6.20;;;2.73;;
72645;SDS011;60687;53.876;10.674;2023-04-24T10:37:29;6.53;;;3.03;;
72645;SDS011;60687;53.876;10.674;2023-04-24T10:47:41;7.03;;;2.80;;
72645;SDS011;60687;53.876;10.674;2023-04-24T11:08:14;6.40;;;2.30;;
72645;SDS011;60687;53.876;10.674;2023-04-24T11:18:17;6.28;;;2.70;;
72645;SDS011;60687;53.876;10.674;2023-04-24T11:28:21;7.20;;;2.63;;
72645;SDS011;60687;53.876;10.674;2023-04-24T11:38:26;7.43;;;3.27;;
72645;SDS011;60687;53.876;10.674;2023-04-24T11:48:30;6.93;;;3.13;;
72645;SDS011;60687;53.876;10.674;2023-04-24T11:58:41;8.25;;;3.45;;
72645;SDS011;60687;53.876;10.674;2023-04-24T12:08:47;8.13;;;3.80;;
72645;SDS011;60687;53.876;10.674;2023-04-24T12:18:50;7.40;;;3.10;;
72645;SDS011;60687;53.876;10.674;2023-04-24T12:28:54;8.73;;;3.80;;
72645;SDS011;60687;53.876;10.674;2023-04-24T12:38:57;8.30;;;4.00;;
72645;SDS011;60687;53.876;10.674;2023-04-24T12:49:00;8.63;;;4.10;;
72645;SDS011;60687;53.876;10.674;2023-04-24T12:59:02;8.38;;;3.90;;
72645;SDS011;60687;53.876;10.674;2023-04-24T13:09:06;7.65;;;3.95;;
72645;SDS011;60687;53.876;10.674;2023-04-24T13:19:09;8.50;;;3.73;;
72645;SDS011;60687;53.876;10.674;2023-04-24T13:29:13;8.98;;;3.67;;
72645;SDS011;60687;53.876;10.674;2023-04-24T13:39:16;8.48;;;4.07;;
72645;SDS011;60687;53.876;10.674;2023-04-24T13:49:29;7.87;;;3.60;;
72645;SDS011;60687;53.876;10.674;2023-04-24T13:59:34;7.30;;;3.60;;
72645;SDS011;60687;53.876;10.674;2023-04-24T14:09:39;8.13;;;3.58;;
72645;SDS011;60687;53.876;10.674;2023-04-24T14:19:42;7.40;;;3.63;;
72645;SDS011;60687;53.876;10.674;2023-04-24T14:29:45;6.70;;;2.77;;
72645;SDS011;60687;53.876;10.674;2023-04-24T14:39:48;7.00;;;2.97;;
72645;SDS011;60687;53.876;10.674;2023-04-24T14:49:57;6.77;;;2.90;;
72645;SDS011;60687;53.876;10.674;2023-04-24T15:00:01;6.13;;;2.40;;
72645;SDS011;60687;53.876;10.674;2023-04-24T15:10:09;6.38;;;3.00;;
72645;SDS011;60687;53.876;10.674;2023-04-24T15:20:14;6.25;;;2.80;;
72645;SDS011;60687;53.876;10.674;2023-04-24T15:30:20;6.53;;;3.03;;
72645;SDS011;60687;53.876;10.674;2023-04-24T15:40:22;7.00;;;3.10;;
72645;SDS011;60687;53.876;10.674;2023-04-24T15:50:26;7.00;;;3.10;;
72645;SDS011;60687;53.876;10.674;2023-04-24T16:00:29;6.33;;;2.40;;
72645;SDS011;60687;53.876;10.674;2023-04-24T16:10:34;6.10;;;2.10;;
72645;SDS011;60687;53.876;10.674;2023-04-24T16:20:37;8.15;;;2.80;;
72645;SDS011;60687;53.876;10.674;2023-04-24T16:30:40;6.17;;;2.50;;
72645;SDS011;60687;53.876;10.674;2023-04-24T16:40:43;6.43;;;2.20;;
72645;SDS011;60687;53.876;10.674;2023-04-24T16:50:46;5.72;;;2.13;;
72645;SDS011;60687;53.876;10.674;2023-04-24T17:00:49;5.63;;;2.03;;
72645;SDS011;60687;53.876;10.674;2023-04-24T17:10:53;7.83;;;3.50;;
72645;SDS011;60687;53.876;10.674;2023-04-24T17:20:55;8.07;;;3.57;;
72645;SDS011;60687;53.876;10.674;2023-04-24T17:31:00;7.68;;;3.00;;
72645;SDS011;60687;53.876;10.674;2023-04-24T17:41:03;7.60;;;3.33;;
72645;SDS011;60687;53.876;10.674;2023-04-24T17:51:07;7.93;;;2.83;;
72645;SDS011;60687;53.876;10.674;2023-04-24T18:01:10;6.40;;;2.33;;
72645;SDS011;60687;53.876;10.674;2023-04-24T18:11:14;7.67;;;2.63;;
72645;SDS011;60687;53.876;10.674;2023-04-24T18:21:16;5.60;;;2.37;;
72645;SDS011;60687;53.876;10.674;2023-04-24T18:31:21;6.68;;;2.88;;
72645;SDS011;60687;53.876;10.674;2023-04-24T18:41:23;6.63;;;2.70;;
72645;SDS011;60687;53.876;10.674;2023-04-24T18:51:27;7.13;;;2.90;;
72645;SDS011;60687;53.876;10.674;2023-04-24T19:01:29;8.87;;;3.67;;
72645;SDS011;60687;53.876;10.674;2023-04-24T19:11:33;8.93;;;3.00;;
72645;SDS011;60687;53.876;10.674;2023-04-24T19:21:44;8.93;;;3.70;;
72645;SDS011;60687;53.876;10.674;2023-04-24T19:31:50;7.03;;;3.07;;
72645;SDS011;60687;53.876;10.674;2023-04-24T19:41:53;8.63;;;3.80;;
72645;SDS011;60687;53.876;10.674;2023-04-24T19:51:57;10.10;;;3.47;;
72645;SDS011;60687;53.876;10.674;2023-04-24T20:02:00;9.40;;;3.67;;
72645;SDS011;60687;53.876;10.674;2023-04-24T20:12:03;7.68;;;2.67;;
72645;SDS011;60687;53.876;10.674;2023-04-24T20:22:06;9.07;;;2.95;;
72645;SDS011;60687;53.876;10.674;2023-04-24T20:32:29;6.63;;;2.38;;
72645;SDS011;60687;53.876;10.674;2023-04-24T20:43:06;7.47;;;2.90;;
72645;SDS011;60687;53.876;10.674;2023-04-24T20:53:12;6.55;;;2.30;;
72645;SDS011;60687;53.876;10.674;2023-04-24T21:03:14;6.37;;;2.53;;
72645;SDS011;60687;53.876;10.674;2023-04-24T21:13:18;6.50;;;2.37;;
72645;SDS011;60687;53.876;10.674;2023-04-24T21:23:20;6.43;;;2.17;;
72645;SDS011;60687;53.876;10.674;2023-04-24T21:33:24;6.68;;;2.33;;
72645;SDS011;60687;53.876;10.674;2023-04-24T21:43:26;6.63;;;2.40;;
72645;SDS011;60687;53.876;10.674;2023-04-24T21:53:30;6.97;;;2.40;;
72645;SDS011;60687;53.876;10.674;2023-04-24T22:03:32;7.93;;;2.90;;
72645;SDS011;60687;53.876;10.674;2023-04-24T22:13:36;7.43;;;2.77;;
72645;SDS011;60687;53.876;10.674;2023-04-24T22:23:38;7.27;;;2.70;;
72645;SDS011;60687;53.876;10.674;2023-04-24T22:33:42;7.57;;;3.20;;
72645;SDS011;60687;53.876;10.674;2023-04-24T22:43:45;8.27;;;3.20;;
72645;SDS011;60687;53.876;10.674;2023-04-24T22:53:49;8.03;;;3.07;;
72645;SDS011;60687;53.876;10.674;2023-04-24T23:03:51;7.53;;;2.95;;
72645;SDS011;60687;53.876;10.674;2023-04-24T23:13:55;7.07;;;2.60;;
72645;SDS011;60687;53.876;10.674;2023-04-24T23:23:58;7.17;;;2.67;;
72645;SDS011;60687;53.876;10.674;2023-04-24T23:34:01;7.17;;;3.20;;
72645;SDS011;60687;53.876;10.674;2023-04-24T23:44:04;8.38;;;2.95;;
72645;SDS011;60687;53.876;10.674;2023-04-24T23:54:07;6.50;;;2.67;;
